Halifax, Virginia
Current Conditions -  °F | °C
As of 8:35 AM on Sunday 28 Dec 2014 (Local Time) from KW78 Reporting Station
Clear Clear  
Wind Chill: 55°   Ceiling: Unl
Heat Index: 55°   Visibility: 10mi
Dew Point: 41°   Wind: 6mph
Humidity: 60%   Direction: 220°SW
Pressure: 30.04"   Gusts: NA
Location:  36.77°N, 78.93°W
Report Text: KW78 281335Z AUTO 22005KT 10SM CLR 13/05 A3004 RMK AO1 T01270050
Loading
Personal Weather Stations






























Interactive Weather Map New forecast layout! Learn more

10-Day Weather Forecast

Advertisements
Track Severe Weather on mobile